sensor_id;sensor_type;location;lat;lon;timestamp;P1;durP1;ratioP1;P2;durP2;ratioP2
7693;SDS011;3889;48.162;11.510;2022-11-15T00:01:01;7.57;;;6.88;;
7693;SDS011;3889;48.162;11.510;2022-11-15T00:03:33;7.72;;;7.03;;
7693;SDS011;3889;48.162;11.510;2022-11-15T00:06:01;8.10;;;7.40;;
7693;SDS011;3889;48.162;11.510;2022-11-15T00:08:30;7.73;;;7.03;;
7693;SDS011;3889;48.162;11.510;2022-11-15T00:10:59;8.60;;;7.80;;
7693;SDS011;3889;48.162;11.510;2022-11-15T00:13:28;8.13;;;7.43;;
7693;SDS011;3889;48.162;11.510;2022-11-15T00:15:58;7.73;;;7.00;;
7693;SDS011;3889;48.162;11.510;2022-11-15T00:18:27;7.53;;;6.85;;
7693;SDS011;3889;48.162;11.510;2022-11-15T00:21:02;7.78;;;6.97;;
7693;SDS011;3889;48.162;11.510;2022-11-15T00:23:31;8.15;;;7.45;;
7693;SDS011;3889;48.162;11.510;2022-11-15T00:25:59;7.35;;;6.65;;
7693;SDS011;3889;48.162;11.510;2022-11-15T00:28:27;7.97;;;7.28;;
7693;SDS011;3889;48.162;11.510;2022-11-15T00:31:00;8.05;;;7.35;;
7693;SDS011;3889;48.162;11.510;2022-11-15T00:33:29;7.50;;;6.80;;
7693;SDS011;3889;48.162;11.510;2022-11-15T00:36:01;7.65;;;7.05;;
7693;SDS011;3889;48.162;11.510;2022-11-15T00:38:31;7.30;;;6.70;;
7693;SDS011;3889;48.162;11.510;2022-11-15T00:41:00;7.43;;;6.72;;
7693;SDS011;3889;48.162;11.510;2022-11-15T00:43:34;7.17;;;6.47;;
7693;SDS011;3889;48.162;11.510;2022-11-15T00:46:04;6.93;;;6.20;;
7693;SDS011;3889;48.162;11.510;2022-11-15T00:48:34;7.88;;;7.18;;
7693;SDS011;3889;48.162;11.510;2022-11-15T00:51:02;7.50;;;6.80;;
7693;SDS011;3889;48.162;11.510;2022-11-15T00:53:29;7.75;;;7.05;;
7693;SDS011;3889;48.162;11.510;2022-11-15T00:55:58;7.28;;;6.57;;
7693;SDS011;3889;48.162;11.510;2022-11-15T00:58:26;7.28;;;6.57;;
7693;SDS011;3889;48.162;11.510;2022-11-15T01:00:54;7.00;;;6.30;;
7693;SDS011;3889;48.162;11.510;2022-11-15T01:03:23;6.90;;;6.20;;
7693;SDS011;3889;48.162;11.510;2022-11-15T01:05:51;7.47;;;6.75;;
7693;SDS011;3889;48.162;11.510;2022-11-15T01:08:19;6.68;;;6.07;;
7693;SDS011;3889;48.162;11.510;2022-11-15T01:10:46;7.32;;;6.68;;
7693;SDS011;3889;48.162;11.510;2022-11-15T01:13:14;7.55;;;6.80;;
7693;SDS011;3889;48.162;11.510;2022-11-15T01:15:42;6.80;;;6.20;;
7693;SDS011;3889;48.162;11.510;2022-11-15T01:18:10;7.10;;;6.40;;
7693;SDS011;3889;48.162;11.510;2022-11-15T01:20:40;7.13;;;6.43;;
7693;SDS011;3889;48.162;11.510;2022-11-15T01:23:09;6.65;;;6.05;;
7693;SDS011;3889;48.162;11.510;2022-11-15T01:25:37;7.00;;;6.40;;
7693;SDS011;3889;48.162;11.510;2022-11-15T01:28:05;7.05;;;6.40;;
7693;SDS011;3889;48.162;11.510;2022-11-15T01:30:32;6.68;;;5.97;;
7693;SDS011;3889;48.162;11.510;2022-11-15T01:33:00;6.77;;;6.17;;
7693;SDS011;3889;48.162;11.510;2022-11-15T01:35:28;6.78;;;6.13;;
7693;SDS011;3889;48.162;11.510;2022-11-15T01:37:57;7.00;;;6.28;;
7693;SDS011;3889;48.162;11.510;2022-11-15T01:40:25;6.72;;;6.10;;
7693;SDS011;3889;48.162;11.510;2022-11-15T01:42:53;6.00;;;5.50;;
7693;SDS011;3889;48.162;11.510;2022-11-15T01:45:21;6.30;;;5.70;;
7693;SDS011;3889;48.162;11.510;2022-11-15T01:47:50;6.03;;;5.53;;
7693;SDS011;3889;48.162;11.510;2022-11-15T01:50:21;6.47;;;5.88;;
7693;SDS011;3889;48.162;11.510;2022-11-15T01:52:53;6.55;;;5.85;;
7693;SDS011;3889;48.162;11.510;2022-11-15T01:55:23;6.20;;;5.60;;
7693;SDS011;3889;48.162;11.510;2022-11-15T01:57:53;5.87;;;5.37;;
7693;SDS011;3889;48.162;11.510;2022-11-15T02:00:29;6.70;;;5.80;;
7693;SDS011;3889;48.162;11.510;2022-11-15T02:02:57;6.50;;;5.68;;
7693;SDS011;3889;48.162;11.510;2022-11-15T02:05:25;6.35;;;5.75;;
7693;SDS011;3889;48.162;11.510;2022-11-15T02:07:54;6.10;;;5.50;;
7693;SDS011;3889;48.162;11.510;2022-11-15T02:10:23;6.05;;;5.55;;
7693;SDS011;3889;48.162;11.510;2022-11-15T02:12:53;6.32;;;5.78;;
7693;SDS011;3889;48.162;11.510;2022-11-15T02:15:23;6.03;;;5.53;;
7693;SDS011;3889;48.162;11.510;2022-11-15T02:18:00;6.20;;;5.13;;
7693;SDS011;3889;48.162;11.510;2022-11-15T02:20:43;5.90;;;5.40;;
7693;SDS011;3889;48.162;11.510;2022-11-15T02:23:28;5.57;;;5.07;;
7693;SDS011;3889;48.162;11.510;2022-11-15T02:26:24;5.90;;;5.40;;
7693;SDS011;3889;48.162;11.510;2022-11-15T02:29:13;6.05;;;5.47;;
7693;SDS011;3889;48.162;11.510;2022-11-15T02:31:50;5.95;;;5.20;;
7693;SDS011;3889;48.162;11.510;2022-11-15T02:34:25;5.70;;;5.20;;
7693;SDS011;3889;48.162;11.510;2022-11-15T02:37:00;5.78;;;5.22;;
7693;SDS011;3889;48.162;11.510;2022-11-15T02:39:34;5.43;;;4.93;;
7693;SDS011;3889;48.162;11.510;2022-11-15T02:42:07;6.55;;;5.40;;
7693;SDS011;3889;48.162;11.510;2022-11-15T02:44:58;5.75;;;5.25;;
7693;SDS011;3889;48.162;11.510;2022-11-15T02:47:32;5.97;;;5.45;;
7693;SDS011;3889;48.162;11.510;2022-11-15T02:50:06;6.28;;;5.78;;
7693;SDS011;3889;48.162;11.510;2022-11-15T02:52:37;5.43;;;4.93;;
7693;SDS011;3889;48.162;11.510;2022-11-15T02:55:05;5.78;;;5.28;;
7693;SDS011;3889;48.162;11.510;2022-11-15T02:57:50;5.20;;;4.80;;
7693;SDS011;3889;48.162;11.510;2022-11-15T03:00:23;5.72;;;5.22;;
7693;SDS011;3889;48.162;11.510;2022-11-15T03:02:58;6.20;;;5.63;;
7693;SDS011;3889;48.162;11.510;2022-11-15T03:05:44;6.00;;;4.95;;
7693;SDS011;3889;48.162;11.510;2022-11-15T03:08:21;6.22;;;5.63;;
7693;SDS011;3889;48.162;11.510;2022-11-15T03:10:56;5.65;;;5.15;;
7693;SDS011;3889;48.162;11.510;2022-11-15T03:13:31;6.20;;;5.60;;
7693;SDS011;3889;48.162;11.510;2022-11-15T03:16:05;5.63;;;5.13;;
7693;SDS011;3889;48.162;11.510;2022-11-15T03:18:38;5.80;;;5.30;;
7693;SDS011;3889;48.162;11.510;2022-11-15T03:21:10;5.95;;;5.20;;
7693;SDS011;3889;48.162;11.510;2022-11-15T03:23:41;5.53;;;5.13;;
7693;SDS011;3889;48.162;11.510;2022-11-15T03:26:11;6.13;;;5.53;;
7693;SDS011;3889;48.162;11.510;2022-11-15T03:28:42;5.90;;;5.40;;
7693;SDS011;3889;48.162;11.510;2022-11-15T03:31:14;6.10;;;5.60;;
7693;SDS011;3889;48.162;11.510;2022-11-15T03:34:05;5.40;;;4.90;;
7693;SDS011;3889;48.162;11.510;2022-11-15T03:36:38;6.22;;;5.63;;
7693;SDS011;3889;48.162;11.510;2022-11-15T03:39:07;5.60;;;5.15;;
7693;SDS011;3889;48.162;11.510;2022-11-15T03:41:38;5.40;;;4.90;;
7693;SDS011;3889;48.162;11.510;2022-11-15T03:44:11;5.60;;;5.10;;
7693;SDS011;3889;48.162;11.510;2022-11-15T03:46:46;6.10;;;5.40;;
7693;SDS011;3889;48.162;11.510;2022-11-15T03:49:19;5.63;;;5.13;;
7693;SDS011;3889;48.162;11.510;2022-11-15T03:51:52;5.00;;;4.60;;
7693;SDS011;3889;48.162;11.510;2022-11-15T03:54:23;5.00;;;4.60;;
7693;SDS011;3889;48.162;11.510;2022-11-15T03:56:51;5.95;;;5.35;;
7693;SDS011;3889;48.162;11.510;2022-11-15T03:59:19;5.40;;;4.90;;
7693;SDS011;3889;48.162;11.510;2022-11-15T04:01:47;5.30;;;4.90;;
7693;SDS011;3889;48.162;11.510;2022-11-15T04:04:14;5.50;;;5.00;;
7693;SDS011;3889;48.162;11.510;2022-11-15T04:06:43;5.50;;;5.00;;
7693;SDS011;3889;48.162;11.510;2022-11-15T04:09:12;5.13;;;4.63;;
7693;SDS011;3889;48.162;11.510;2022-11-15T04:11:39;5.32;;;4.90;;
7693;SDS011;3889;48.162;11.510;2022-11-15T04:14:07;5.20;;;4.70;;
7693;SDS011;3889;48.162;11.510;2022-11-15T04:16:35;5.80;;;5.20;;
7693;SDS011;3889;48.162;11.510;2022-11-15T04:19:09;4.97;;;4.57;;
7693;SDS011;3889;48.162;11.510;2022-11-15T04:21:56;5.60;;;5.13;;
7693;SDS011;3889;48.162;11.510;2022-11-15T04:24:41;6.00;;;5.50;;
7693;SDS011;3889;48.162;11.510;2022-11-15T04:27:09;5.22;;;4.82;;
7693;SDS011;3889;48.162;11.510;2022-11-15T04:29:38;5.57;;;5.07;;
7693;SDS011;3889;48.162;11.510;2022-11-15T04:32:06;5.60;;;5.10;;
7693;SDS011;3889;48.162;11.510;2022-11-15T04:34:34;5.38;;;4.88;;
7693;SDS011;3889;48.162;11.510;2022-11-15T04:37:05;5.15;;;4.65;;
7693;SDS011;3889;48.162;11.510;2022-11-15T04:39:38;5.30;;;4.72;;
7693;SDS011;3889;48.162;11.510;2022-11-15T04:42:06;5.13;;;4.72;;
7693;SDS011;3889;48.162;11.510;2022-11-15T04:44:34;5.57;;;5.07;;
7693;SDS011;3889;48.162;11.510;2022-11-15T04:47:02;5.28;;;4.78;;
7693;SDS011;3889;48.162;11.510;2022-11-15T04:49:30;4.85;;;4.45;;
7693;SDS011;3889;48.162;11.510;2022-11-15T04:51:58;5.32;;;4.82;;
7693;SDS011;3889;48.162;11.510;2022-11-15T04:54:28;5.30;;;4.90;;
7693;SDS011;3889;48.162;11.510;2022-11-15T04:56:55;4.97;;;4.57;;
7693;SDS011;3889;48.162;11.510;2022-11-15T04:59:23;4.90;;;4.50;;
7693;SDS011;3889;48.162;11.510;2022-11-15T05:01:51;5.15;;;4.75;;
7693;SDS011;3889;48.162;11.510;2022-11-15T05:04:19;5.32;;;4.82;;
7693;SDS011;3889;48.162;11.510;2022-11-15T05:06:49;5.20;;;4.80;;
7693;SDS011;3889;48.162;11.510;2022-11-15T05:09:19;4.80;;;4.38;;
7693;SDS011;3889;48.162;11.510;2022-11-15T05:11:49;5.13;;;4.60;;
7693;SDS011;3889;48.162;11.510;2022-11-15T05:14:17;5.00;;;4.50;;
7693;SDS011;3889;48.162;11.510;2022-11-15T05:16:45;5.60;;;4.67;;
7693;SDS011;3889;48.162;11.510;2022-11-15T05:19:13;4.97;;;4.57;;
7693;SDS011;3889;48.162;11.510;2022-11-15T05:21:41;4.75;;;4.35;;
7693;SDS011;3889;48.162;11.510;2022-11-15T05:24:10;4.90;;;4.37;;
7693;SDS011;3889;48.162;11.510;2022-11-15T05:26:38;4.78;;;4.38;;
7693;SDS011;3889;48.162;11.510;2022-11-15T05:29:08;5.70;;;5.10;;
7693;SDS011;3889;48.162;11.510;2022-11-15T05:31:39;5.28;;;4.82;;
7693;SDS011;3889;48.162;11.510;2022-11-15T05:34:08;5.38;;;4.88;;
7693;SDS011;3889;48.162;11.510;2022-11-15T05:36:37;5.88;;;5.22;;
7693;SDS011;3889;48.162;11.510;2022-11-15T05:39:06;5.75;;;5.15;;
7693;SDS011;3889;48.162;11.510;2022-11-15T05:41:36;5.80;;;5.18;;
7693;SDS011;3889;48.162;11.510;2022-11-15T05:44:08;5.85;;;5.07;;
7693;SDS011;3889;48.162;11.510;2022-11-15T05:46:38;5.33;;;4.83;;
7693;SDS011;3889;48.162;11.510;2022-11-15T05:49:08;5.03;;;4.55;;
7693;SDS011;3889;48.162;11.510;2022-11-15T05:51:38;5.00;;;4.55;;
7693;SDS011;3889;48.162;11.510;2022-11-15T05:54:08;5.10;;;4.60;;
7693;SDS011;3889;48.162;11.510;2022-11-15T05:56:37;5.13;;;4.50;;
7693;SDS011;3889;48.162;11.510;2022-11-15T05:59:05;4.90;;;4.50;;
7693;SDS011;3889;48.162;11.510;2022-11-15T06:01:35;5.33;;;4.83;;
7693;SDS011;3889;48.162;11.510;2022-11-15T06:04:03;5.63;;;5.00;;
7693;SDS011;3889;48.162;11.510;2022-11-15T06:06:31;4.85;;;4.45;;
7693;SDS011;3889;48.162;11.510;2022-11-15T06:08:59;5.30;;;4.78;;
7693;SDS011;3889;48.162;11.510;2022-11-15T06:11:27;4.68;;;4.18;;
7693;SDS011;3889;48.162;11.510;2022-11-15T06:13:55;5.18;;;4.63;;
7693;SDS011;3889;48.162;11.510;2022-11-15T06:16:25;5.28;;;4.78;;
7693;SDS011;3889;48.162;11.510;2022-11-15T06:18:52;4.90;;;4.50;;
7693;SDS011;3889;48.162;11.510;2022-11-15T06:21:20;4.70;;;4.30;;
7693;SDS011;3889;48.162;11.510;2022-11-15T06:23:48;5.00;;;4.57;;
7693;SDS011;3889;48.162;11.510;2022-11-15T06:26:16;5.68;;;4.90;;
7693;SDS011;3889;48.162;11.510;2022-11-15T06:28:44;5.85;;;4.55;;
7693;SDS011;3889;48.162;11.510;2022-11-15T06:31:12;4.60;;;4.20;;
7693;SDS011;3889;48.162;11.510;2022-11-15T06:33:42;5.72;;;5.10;;
7693;SDS011;3889;48.162;11.510;2022-11-15T06:36:10;5.32;;;4.75;;
7693;SDS011;3889;48.162;11.510;2022-11-15T06:38:43;4.60;;;4.20;;
7693;SDS011;3889;48.162;11.510;2022-11-15T06:41:12;5.88;;;5.07;;
7693;SDS011;3889;48.162;11.510;2022-11-15T06:43:41;5.32;;;4.82;;
7693;SDS011;3889;48.162;11.510;2022-11-15T06:46:09;5.40;;;4.90;;
7693;SDS011;3889;48.162;11.510;2022-11-15T06:48:37;8.05;;;5.43;;
7693;SDS011;3889;48.162;11.510;2022-11-15T06:51:06;5.53;;;4.85;;
7693;SDS011;3889;48.162;11.510;2022-11-15T06:53:34;5.78;;;5.18;;
7693;SDS011;3889;48.162;11.510;2022-11-15T06:56:03;6.67;;;5.20;;
7693;SDS011;3889;48.162;11.510;2022-11-15T06:58:32;7.72;;;4.85;;
7693;SDS011;3889;48.162;11.510;2022-11-15T07:01:01;6.37;;;5.10;;
7693;SDS011;3889;48.162;11.510;2022-11-15T07:03:31;11.45;;;5.82;;
7693;SDS011;3889;48.162;11.510;2022-11-15T07:06:01;8.27;;;5.90;;
7693;SDS011;3889;48.162;11.510;2022-11-15T07:08:34;5.78;;;5.18;;
7693;SDS011;3889;48.162;11.510;2022-11-15T07:11:03;6.65;;;5.60;;
7693;SDS011;3889;48.162;11.510;2022-11-15T07:13:32;6.00;;;5.40;;
7693;SDS011;3889;48.162;11.510;2022-11-15T07:16:02;5.83;;;5.27;;
7693;SDS011;3889;48.162;11.510;2022-11-15T07:18:30;6.45;;;5.80;;
7693;SDS011;3889;48.162;11.510;2022-11-15T07:21:00;6.68;;;5.57;;
7693;SDS011;3889;48.162;11.510;2022-11-15T07:23:29;6.00;;;5.40;;
7693;SDS011;3889;48.162;11.510;2022-11-15T07:25:59;7.93;;;5.60;;
7693;SDS011;3889;48.162;11.510;2022-11-15T07:28:27;6.50;;;5.40;;
7693;SDS011;3889;48.162;11.510;2022-11-15T07:30:55;7.55;;;6.10;;
7693;SDS011;3889;48.162;11.510;2022-11-15T07:33:23;6.20;;;5.60;;
7693;SDS011;3889;48.162;11.510;2022-11-15T07:35:51;5.57;;;5.07;;
7693;SDS011;3889;48.162;11.510;2022-11-15T07:38:19;6.38;;;5.20;;
7693;SDS011;3889;48.162;11.510;2022-11-15T07:40:47;5.95;;;5.25;;
7693;SDS011;3889;48.162;11.510;2022-11-15T07:43:23;6.07;;;5.47;;
7693;SDS011;3889;48.162;11.510;2022-11-15T07:45:54;7.50;;;5.40;;
7693;SDS011;3889;48.162;11.510;2022-11-15T07:48:24;6.50;;;5.55;;
7693;SDS011;3889;48.162;11.510;2022-11-15T07:51:09;6.32;;;5.35;;
7693;SDS011;3889;48.162;11.510;2022-11-15T07:53:39;6.30;;;5.55;;
7693;SDS011;3889;48.162;11.510;2022-11-15T07:56:08;7.13;;;5.47;;
7693;SDS011;3889;48.162;11.510;2022-11-15T07:58:37;6.85;;;5.45;;
7693;SDS011;3889;48.162;11.510;2022-11-15T08:01:05;9.85;;;6.65;;
7693;SDS011;3889;48.162;11.510;2022-11-15T08:03:34;9.23;;;6.32;;
7693;SDS011;3889;48.162;11.510;2022-11-15T08:06:02;8.55;;;6.22;;
7693;SDS011;3889;48.162;11.510;2022-11-15T08:08:30;8.68;;;5.80;;
7693;SDS011;3889;48.162;11.510;2022-11-15T08:10:58;8.18;;;5.38;;
7693;SDS011;3889;48.162;11.510;2022-11-15T08:13:26;5.63;;;5.03;;
7693;SDS011;3889;48.162;11.510;2022-11-15T08:15:58;6.40;;;5.70;;
7693;SDS011;3889;48.162;11.510;2022-11-15T08:18:26;6.75;;;5.00;;
7693;SDS011;3889;48.162;11.510;2022-11-15T08:20:57;5.90;;;5.05;;
7693;SDS011;3889;48.162;11.510;2022-11-15T08:23:27;8.35;;;5.45;;
7693;SDS011;3889;48.162;11.510;2022-11-15T08:25:59;5.68;;;4.65;;
7693;SDS011;3889;48.162;11.510;2022-11-15T08:28:28;5.80;;;4.70;;
7693;SDS011;3889;48.162;11.510;2022-11-15T08:30:55;6.72;;;4.85;;
7693;SDS011;3889;48.162;11.510;2022-11-15T08:33:25;9.48;;;5.00;;
7693;SDS011;3889;48.162;11.510;2022-11-15T08:35:55;7.63;;;4.63;;
7693;SDS011;3889;48.162;11.510;2022-11-15T08:38:23;7.18;;;5.18;;
7693;SDS011;3889;48.162;11.510;2022-11-15T08:40:51;7.57;;;5.10;;
7693;SDS011;3889;48.162;11.510;2022-11-15T08:43:20;6.40;;;5.10;;
7693;SDS011;3889;48.162;11.510;2022-11-15T08:45:48;11.95;;;5.28;;
7693;SDS011;3889;48.162;11.510;2022-11-15T08:48:15;7.00;;;5.32;;
7693;SDS011;3889;48.162;11.510;2022-11-15T08:50:45;8.73;;;4.70;;
7693;SDS011;3889;48.162;11.510;2022-11-15T08:53:12;5.95;;;4.60;;
7693;SDS011;3889;48.162;11.510;2022-11-15T08:55:40;7.13;;;4.40;;
7693;SDS011;3889;48.162;11.510;2022-11-15T08:58:08;7.63;;;4.53;;
7693;SDS011;3889;48.162;11.510;2022-11-15T09:00:36;6.57;;;5.07;;
7693;SDS011;3889;48.162;11.510;2022-11-15T09:03:04;7.10;;;5.93;;
7693;SDS011;3889;48.162;11.510;2022-11-15T09:05:35;6.20;;;4.32;;
7693;SDS011;3889;48.162;11.510;2022-11-15T09:08:05;4.72;;;4.30;;
7693;SDS011;3889;48.162;11.510;2022-11-15T09:10:53;6.47;;;4.45;;
7693;SDS011;3889;48.162;11.510;2022-11-15T09:13:20;5.22;;;4.53;;
7693;SDS011;3889;48.162;11.510;2022-11-15T09:15:49;5.95;;;4.40;;
7693;SDS011;3889;48.162;11.510;2022-11-15T09:18:16;7.95;;;5.10;;
7693;SDS011;3889;48.162;11.510;2022-11-15T09:20:47;8.60;;;4.55;;
7693;SDS011;3889;48.162;11.510;2022-11-15T09:23:16;6.53;;;4.57;;
7693;SDS011;3889;48.162;11.510;2022-11-15T09:25:44;7.47;;;4.88;;
7693;SDS011;3889;48.162;11.510;2022-11-15T09:28:12;9.02;;;4.80;;
7693;SDS011;3889;48.162;11.510;2022-11-15T09:30:40;5.15;;;4.25;;
7693;SDS011;3889;48.162;11.510;2022-11-15T09:33:07;6.93;;;4.30;;
7693;SDS011;3889;48.162;11.510;2022-11-15T09:35:36;6.85;;;4.45;;
7693;SDS011;3889;48.162;11.510;2022-11-15T09:38:04;7.22;;;4.47;;
7693;SDS011;3889;48.162;11.510;2022-11-15T09:40:35;9.93;;;6.07;;
7693;SDS011;3889;48.162;11.510;2022-11-15T09:43:07;9.80;;;7.07;;
7693;SDS011;3889;48.162;11.510;2022-11-15T09:45:55;8.98;;;4.97;;
7693;SDS011;3889;48.162;11.510;2022-11-15T09:48:37;7.80;;;3.80;;
7693;SDS011;3889;48.162;11.510;2022-11-15T09:51:20;8.88;;;3.85;;
7693;SDS011;3889;48.162;11.510;2022-11-15T09:53:56;6.38;;;4.07;;
7693;SDS011;3889;48.162;11.510;2022-11-15T09:56:49;8.80;;;4.53;;
7693;SDS011;3889;48.162;11.510;2022-11-15T09:59:33;5.55;;;4.15;;
7693;SDS011;3889;48.162;11.510;2022-11-15T10:02:19;8.93;;;4.30;;
7693;SDS011;3889;48.162;11.510;2022-11-15T10:04:58;9.02;;;4.80;;
7693;SDS011;3889;48.162;11.510;2022-11-15T10:07:31;5.10;;;4.53;;
7693;SDS011;3889;48.162;11.510;2022-11-15T10:10:15;6.55;;;4.70;;
7693;SDS011;3889;48.162;11.510;2022-11-15T10:12:52;4.80;;;3.83;;
7693;SDS011;3889;48.162;11.510;2022-11-15T10:15:20;4.47;;;3.40;;
7693;SDS011;3889;48.162;11.510;2022-11-15T10:17:55;5.50;;;4.00;;
7693;SDS011;3889;48.162;11.510;2022-11-15T10:20:34;30.08;;;17.77;;
7693;SDS011;3889;48.162;11.510;2022-11-15T10:23:10;8.27;;;6.35;;
7693;SDS011;3889;48.162;11.510;2022-11-15T10:25:40;4.40;;;3.65;;
7693;SDS011;3889;48.162;11.510;2022-11-15T10:28:11;5.78;;;3.40;;
7693;SDS011;3889;48.162;11.510;2022-11-15T10:30:43;5.28;;;3.45;;
7693;SDS011;3889;48.162;11.510;2022-11-15T10:33:15;3.47;;;3.03;;
7693;SDS011;3889;48.162;11.510;2022-11-15T10:36:13;3.95;;;3.10;;
7693;SDS011;3889;48.162;11.510;2022-11-15T10:38:58;3.33;;;2.92;;
7693;SDS011;3889;48.162;11.510;2022-11-15T10:41:30;3.80;;;3.30;;
7693;SDS011;3889;48.162;11.510;2022-11-15T10:44:03;5.32;;;3.40;;
7693;SDS011;3889;48.162;11.510;2022-11-15T10:46:40;4.28;;;3.40;;
7693;SDS011;3889;48.162;11.510;2022-11-15T10:49:13;3.30;;;3.00;;
7693;SDS011;3889;48.162;11.510;2022-11-15T10:51:43;5.43;;;3.55;;
7693;SDS011;3889;48.162;11.510;2022-11-15T10:54:14;4.78;;;3.33;;
7693;SDS011;3889;48.162;11.510;2022-11-15T10:56:50;5.35;;;3.38;;
7693;SDS011;3889;48.162;11.510;2022-11-15T10:59:23;4.78;;;3.20;;
7693;SDS011;3889;48.162;11.510;2022-11-15T11:01:54;5.13;;;3.23;;
7693;SDS011;3889;48.162;11.510;2022-11-15T11:04:22;4.88;;;2.88;;
7693;SDS011;3889;48.162;11.510;2022-11-15T11:06:50;3.65;;;2.83;;
7693;SDS011;3889;48.162;11.510;2022-11-15T11:09:22;3.50;;;2.50;;
7693;SDS011;3889;48.162;11.510;2022-11-15T11:11:55;3.53;;;2.40;;
7693;SDS011;3889;48.162;11.510;2022-11-15T11:14:24;3.85;;;2.30;;
7693;SDS011;3889;48.162;11.510;2022-11-15T11:16:55;3.78;;;2.60;;
7693;SDS011;3889;48.162;11.510;2022-11-15T11:22:17;2.50;;;2.30;;
7693;SDS011;3889;48.162;11.510;2022-11-15T11:24:53;3.92;;;2.40;;
7693;SDS011;3889;48.162;11.510;2022-11-15T11:27:36;2.63;;;2.20;;
7693;SDS011;3889;48.162;11.510;2022-11-15T11:30:14;3.25;;;2.35;;
7693;SDS011;3889;48.162;11.510;2022-11-15T11:35:45;2.97;;;2.50;;
7693;SDS011;3889;48.162;11.510;2022-11-15T11:38:20;2.83;;;2.13;;
7693;SDS011;3889;48.162;11.510;2022-11-15T11:41:04;2.73;;;2.23;;
7693;SDS011;3889;48.162;11.510;2022-11-15T11:43:44;2.90;;;2.20;;
7693;SDS011;3889;48.162;11.510;2022-11-15T11:46:27;2.72;;;2.00;;
7693;SDS011;3889;48.162;11.510;2022-11-15T11:49:15;2.38;;;2.17;;
7693;SDS011;3889;48.162;11.510;2022-11-15T11:51:47;2.47;;;1.97;;
7693;SDS011;3889;48.162;11.510;2022-11-15T11:54:20;4.15;;;2.30;;
7693;SDS011;3889;48.162;11.510;2022-11-15T11:56:52;2.20;;;2.00;;
7693;SDS011;3889;48.162;11.510;2022-11-15T11:59:26;2.30;;;2.10;;
7693;SDS011;3889;48.162;11.510;2022-11-15T12:02:02;4.63;;;1.92;;
7693;SDS011;3889;48.162;11.510;2022-11-15T12:04:40;2.10;;;1.90;;
7693;SDS011;3889;48.162;11.510;2022-11-15T12:07:13;2.80;;;1.80;;
7693;SDS011;3889;48.162;11.510;2022-11-15T12:09:46;3.03;;;2.20;;
7693;SDS011;3889;48.162;11.510;2022-11-15T12:12:25;2.25;;;2.03;;
7693;SDS011;3889;48.162;11.510;2022-11-15T12:15:00;3.15;;;2.03;;
7693;SDS011;3889;48.162;11.510;2022-11-15T12:17:31;3.20;;;1.98;;
7693;SDS011;3889;48.162;11.510;2022-11-15T12:20:00;3.05;;;1.92;;
7693;SDS011;3889;48.162;11.510;2022-11-15T12:22:35;2.22;;;1.92;;
7693;SDS011;3889;48.162;11.510;2022-11-15T12:25:13;2.25;;;2.05;;
7693;SDS011;3889;48.162;11.510;2022-11-15T12:27:46;3.20;;;1.90;;
7693;SDS011;3889;48.162;11.510;2022-11-15T12:30:18;2.42;;;1.90;;
7693;SDS011;3889;48.162;11.510;2022-11-15T12:32:50;2.20;;;2.00;;
7693;SDS011;3889;48.162;11.510;2022-11-15T12:35:21;1.70;;;1.60;;
7693;SDS011;3889;48.162;11.510;2022-11-15T12:37:53;2.00;;;1.80;;
7693;SDS011;3889;48.162;11.510;2022-11-15T12:40:25;2.20;;;1.95;;
7693;SDS011;3889;48.162;11.510;2022-11-15T12:46:13;3.05;;;2.30;;
7693;SDS011;3889;48.162;11.510;2022-11-15T12:48:51;2.78;;;2.22;;
7693;SDS011;3889;48.162;11.510;2022-11-15T12:51:21;2.33;;;2.10;;
7693;SDS011;3889;48.162;11.510;2022-11-15T13:00:37;2.45;;;2.25;;
7693;SDS011;3889;48.162;11.510;2022-11-15T13:03:16;2.40;;;2.20;;
7693;SDS011;3889;48.162;11.510;2022-11-15T13:06:02;3.00;;;2.40;;
7693;SDS011;3889;48.162;11.510;2022-11-15T13:08:43;3.80;;;2.40;;
7693;SDS011;3889;48.162;11.510;2022-11-15T13:20:23;6.05;;;2.60;;
7693;SDS011;3889;48.162;11.510;2022-11-15T13:23:01;2.65;;;2.35;;
7693;SDS011;3889;48.162;11.510;2022-11-15T13:25:56;2.63;;;2.42;;
7693;SDS011;3889;48.162;11.510;2022-11-15T13:28:36;3.05;;;2.28;;
7693;SDS011;3889;48.162;11.510;2022-11-15T13:31:19;2.45;;;1.85;;
7693;SDS011;3889;48.162;11.510;2022-11-15T13:33:55;4.63;;;2.35;;
7693;SDS011;3889;48.162;11.510;2022-11-15T13:36:26;3.33;;;2.08;;
7693;SDS011;3889;48.162;11.510;2022-11-15T13:38:59;8.05;;;2.85;;
7693;SDS011;3889;48.162;11.510;2022-11-15T13:41:29;2.90;;;2.30;;
7693;SDS011;3889;48.162;11.510;2022-11-15T13:43:59;3.42;;;2.60;;
7693;SDS011;3889;48.162;11.510;2022-11-15T13:46:28;3.50;;;2.50;;
7693;SDS011;3889;48.162;11.510;2022-11-15T13:48:57;5.07;;;2.80;;
7693;SDS011;3889;48.162;11.510;2022-11-15T13:51:31;4.03;;;2.80;;
7693;SDS011;3889;48.162;11.510;2022-11-15T13:54:09;2.50;;;2.30;;
7693;SDS011;3889;48.162;11.510;2022-11-15T13:56:47;2.97;;;2.58;;
7693;SDS011;3889;48.162;11.510;2022-11-15T13:59:19;3.35;;;2.50;;
7693;SDS011;3889;48.162;11.510;2022-11-15T14:01:51;3.53;;;2.60;;
7693;SDS011;3889;48.162;11.510;2022-11-15T14:04:21;3.67;;;2.67;;
7693;SDS011;3889;48.162;11.510;2022-11-15T14:06:52;4.22;;;2.80;;
7693;SDS011;3889;48.162;11.510;2022-11-15T14:09:31;2.70;;;2.47;;
7693;SDS011;3889;48.162;11.510;2022-11-15T14:14:50;3.10;;;2.55;;
7693;SDS011;3889;48.162;11.510;2022-11-15T14:17:20;4.38;;;3.00;;
7693;SDS011;3889;48.162;11.510;2022-11-15T14:19:59;2.72;;;2.50;;
7693;SDS011;3889;48.162;11.510;2022-11-15T14:22:28;4.55;;;3.10;;
7693;SDS011;3889;48.162;11.510;2022-11-15T14:30:37;5.37;;;3.70;;
7693;SDS011;3889;48.162;11.510;2022-11-15T14:33:15;4.33;;;3.40;;
7693;SDS011;3889;48.162;11.510;2022-11-15T14:35:46;5.28;;;3.60;;
7693;SDS011;3889;48.162;11.510;2022-11-15T14:38:14;4.70;;;4.28;;
7693;SDS011;3889;48.162;11.510;2022-11-15T14:40:43;4.65;;;4.15;;
7693;SDS011;3889;48.162;11.510;2022-11-15T14:43:11;4.63;;;4.23;;
7693;SDS011;3889;48.162;11.510;2022-11-15T14:45:40;5.22;;;4.50;;
7693;SDS011;3889;48.162;11.510;2022-11-15T14:48:08;5.25;;;4.80;;
7693;SDS011;3889;48.162;11.510;2022-11-15T14:50:36;5.88;;;5.28;;
7693;SDS011;3889;48.162;11.510;2022-11-15T14:53:05;5.93;;;4.82;;
7693;SDS011;3889;48.162;11.510;2022-11-15T14:55:33;8.40;;;5.22;;
7693;SDS011;3889;48.162;11.510;2022-11-15T14:58:04;6.88;;;5.40;;
7693;SDS011;3889;48.162;11.510;2022-11-15T15:00:34;6.65;;;5.88;;
7693;SDS011;3889;48.162;11.510;2022-11-15T15:03:03;6.05;;;5.32;;
7693;SDS011;3889;48.162;11.510;2022-11-15T15:05:33;7.43;;;5.65;;
7693;SDS011;3889;48.162;11.510;2022-11-15T15:08:02;8.75;;;5.65;;
7693;SDS011;3889;48.162;11.510;2022-11-15T15:10:31;7.88;;;6.07;;
7693;SDS011;3889;48.162;11.510;2022-11-15T15:13:10;6.33;;;5.60;;
7693;SDS011;3889;48.162;11.510;2022-11-15T15:15:43;6.95;;;5.40;;
7693;SDS011;3889;48.162;11.510;2022-11-15T15:18:11;8.10;;;5.65;;
7693;SDS011;3889;48.162;11.510;2022-11-15T15:20:39;6.45;;;5.78;;
7693;SDS011;3889;48.162;11.510;2022-11-15T15:23:10;8.32;;;6.07;;
7693;SDS011;3889;48.162;11.510;2022-11-15T15:25:43;7.38;;;5.60;;
7693;SDS011;3889;48.162;11.510;2022-11-15T15:28:13;6.72;;;5.88;;
7693;SDS011;3889;48.162;11.510;2022-11-15T15:30:41;6.78;;;6.05;;
7693;SDS011;3889;48.162;11.510;2022-11-15T15:33:09;7.18;;;6.13;;
7693;SDS011;3889;48.162;11.510;2022-11-15T15:35:37;6.82;;;6.07;;
7693;SDS011;3889;48.162;11.510;2022-11-15T15:38:05;6.87;;;6.23;;
7693;SDS011;3889;48.162;11.510;2022-11-15T15:40:33;6.80;;;6.20;;
7693;SDS011;3889;48.162;11.510;2022-11-15T15:43:00;6.95;;;6.35;;
7693;SDS011;3889;48.162;11.510;2022-11-15T15:45:30;7.43;;;6.70;;
7693;SDS011;3889;48.162;11.510;2022-11-15T15:47:59;7.70;;;6.97;;
7693;SDS011;3889;48.162;11.510;2022-11-15T15:50:27;17.73;;;15.82;;
7693;SDS011;3889;48.162;11.510;2022-11-15T15:52:57;11.95;;;10.75;;
7693;SDS011;3889;48.162;11.510;2022-11-15T15:55:26;8.60;;;7.80;;
7693;SDS011;3889;48.162;11.510;2022-11-15T15:57:54;8.70;;;7.85;;
7693;SDS011;3889;48.162;11.510;2022-11-15T16:00:22;8.55;;;7.75;;